sensor_id;sensor_type;location;lat;lon;timestamp;temperature;humidity
21799;DHT22;24973;47.178;15.316;2023-05-07T00:01:45;14.30;99.90
21799;DHT22;24973;47.178;15.316;2023-05-07T00:04:34;14.30;99.90
21799;DHT22;24973;47.178;15.316;2023-05-07T00:07:24;14.30;99.90
21799;DHT22;24973;47.178;15.316;2023-05-07T00:10:13;14.20;99.90
21799;DHT22;24973;47.178;15.316;2023-05-07T00:13:02;14.10;99.90
21799;DHT22;24973;47.178;15.316;2023-05-07T00:15:50;14.00;99.90
21799;DHT22;24973;47.178;15.316;2023-05-07T00:18:40;13.80;99.90
21799;DHT22;24973;47.178;15.316;2023-05-07T00:21:29;13.70;99.90
21799;DHT22;24973;47.178;15.316;2023-05-07T00:24:18;13.60;99.90
21799;DHT22;24973;47.178;15.316;2023-05-07T00:27:06;13.60;99.90
21799;DHT22;24973;47.178;15.316;2023-05-07T00:29:55;13.60;99.90
21799;DHT22;24973;47.178;15.316;2023-05-07T00:32:44;13.60;99.90
21799;DHT22;24973;47.178;15.316;2023-05-07T00:35:34;13.70;99.90
21799;DHT22;24973;47.178;15.316;2023-05-07T00:38:23;13.60;99.90
21799;DHT22;24973;47.178;15.316;2023-05-07T00:41:11;13.60;99.90
21799;DHT22;24973;47.178;15.316;2023-05-07T00:44:00;13.60;99.90
21799;DHT22;24973;47.178;15.316;2023-05-07T00:46:49;13.60;99.90
21799;DHT22;24973;47.178;15.316;2023-05-07T00:49:39;13.60;99.90
21799;DHT22;24973;47.178;15.316;2023-05-07T00:52:31;13.50;99.90
21799;DHT22;24973;47.178;15.316;2023-05-07T00:55:20;13.50;99.90
21799;DHT22;24973;47.178;15.316;2023-05-07T00:58:09;13.40;99.90
21799;DHT22;24973;47.178;15.316;2023-05-07T01:00:58;13.40;99.90
21799;DHT22;24973;47.178;15.316;2023-05-07T01:03:47;13.30;99.90
21799;DHT22;24973;47.178;15.316;2023-05-07T01:06:36;13.30;99.90
21799;DHT22;24973;47.178;15.316;2023-05-07T01:09:26;13.20;99.90
21799;DHT22;24973;47.178;15.316;2023-05-07T01:12:16;13.10;99.90
21799;DHT22;24973;47.178;15.316;2023-05-07T01:15:06;13.00;99.90
21799;DHT22;24973;47.178;15.316;2023-05-07T01:17:56;13.00;99.90
21799;DHT22;24973;47.178;15.316;2023-05-07T01:20:45;12.90;99.90
21799;DHT22;24973;47.178;15.316;2023-05-07T01:23:36;12.90;99.90
21799;DHT22;24973;47.178;15.316;2023-05-07T01:26:25;12.80;99.90
21799;DHT22;24973;47.178;15.316;2023-05-07T01:29:13;12.70;99.90
21799;DHT22;24973;47.178;15.316;2023-05-07T01:32:03;12.70;99.90
21799;DHT22;24973;47.178;15.316;2023-05-07T01:34:53;12.60;99.90
21799;DHT22;24973;47.178;15.316;2023-05-07T01:37:42;12.50;99.90
21799;DHT22;24973;47.178;15.316;2023-05-07T01:40:32;12.50;99.90
21799;DHT22;24973;47.178;15.316;2023-05-07T01:43:22;12.50;99.90
21799;DHT22;24973;47.178;15.316;2023-05-07T01:46:11;12.40;99.90
21799;DHT22;24973;47.178;15.316;2023-05-07T01:49:00;12.40;99.90
21799;DHT22;24973;47.178;15.316;2023-05-07T01:51:49;12.30;99.90
21799;DHT22;24973;47.178;15.316;2023-05-07T01:54:38;12.30;99.90
21799;DHT22;24973;47.178;15.316;2023-05-07T01:57:28;12.30;99.90
21799;DHT22;24973;47.178;15.316;2023-05-07T02:00:18;12.20;99.90
21799;DHT22;24973;47.178;15.316;2023-05-07T02:03:07;12.20;99.90
21799;DHT22;24973;47.178;15.316;2023-05-07T02:05:56;12.20;99.90
21799;DHT22;24973;47.178;15.316;2023-05-07T02:08:44;12.20;99.90
21799;DHT22;24973;47.178;15.316;2023-05-07T02:11:33;12.10;99.90
21799;DHT22;24973;47.178;15.316;2023-05-07T02:14:23;12.00;99.90
21799;DHT22;24973;47.178;15.316;2023-05-07T02:17:13;12.00;99.90
21799;DHT22;24973;47.178;15.316;2023-05-07T02:20:01;11.90;99.90
21799;DHT22;24973;47.178;15.316;2023-05-07T02:22:51;11.90;99.90
21799;DHT22;24973;47.178;15.316;2023-05-07T02:25:39;11.80;99.90
21799;DHT22;24973;47.178;15.316;2023-05-07T02:28:28;11.70;99.90
21799;DHT22;24973;47.178;15.316;2023-05-07T02:31:18;11.70;99.90
21799;DHT22;24973;47.178;15.316;2023-05-07T02:34:07;11.60;99.90
21799;DHT22;24973;47.178;15.316;2023-05-07T02:36:55;11.60;99.90
21799;DHT22;24973;47.178;15.316;2023-05-07T02:39:44;11.60;99.90
21799;DHT22;24973;47.178;15.316;2023-05-07T02:42:33;11.60;99.90
21799;DHT22;24973;47.178;15.316;2023-05-07T02:45:21;11.60;99.90
21799;DHT22;24973;47.178;15.316;2023-05-07T02:48:11;11.70;99.90
21799;DHT22;24973;47.178;15.316;2023-05-07T02:51:00;11.60;99.90
21799;DHT22;24973;47.178;15.316;2023-05-07T02:53:49;11.60;99.90
21799;DHT22;24973;47.178;15.316;2023-05-07T02:56:38;11.60;99.90
21799;DHT22;24973;47.178;15.316;2023-05-07T02:59:27;11.60;99.90
21799;DHT22;24973;47.178;15.316;2023-05-07T03:02:15;11.50;99.90
21799;DHT22;24973;47.178;15.316;2023-05-07T03:05:06;11.50;99.90
21799;DHT22;24973;47.178;15.316;2023-05-07T03:07:55;11.50;99.90
21799;DHT22;24973;47.178;15.316;2023-05-07T03:10:44;11.40;99.90
21799;DHT22;24973;47.178;15.316;2023-05-07T03:13:32;11.40;99.90
21799;DHT22;24973;47.178;15.316;2023-05-07T03:16:21;11.30;99.90
21799;DHT22;24973;47.178;15.316;2023-05-07T03:19:10;11.30;99.90
21799;DHT22;24973;47.178;15.316;2023-05-07T03:22:00;11.30;99.90
21799;DHT22;24973;47.178;15.316;2023-05-07T03:24:48;11.30;99.90
21799;DHT22;24973;47.178;15.316;2023-05-07T03:27:37;11.10;99.90
21799;DHT22;24973;47.178;15.316;2023-05-07T03:30:26;11.10;99.90
21799;DHT22;24973;47.178;15.316;2023-05-07T03:33:15;11.10;99.90
21799;DHT22;24973;47.178;15.316;2023-05-07T03:36:04;11.00;99.90
21799;DHT22;24973;47.178;15.316;2023-05-07T03:38:54;11.00;99.90
21799;DHT22;24973;47.178;15.316;2023-05-07T03:41:42;11.00;99.90
21799;DHT22;24973;47.178;15.316;2023-05-07T03:44:31;11.00;99.90
21799;DHT22;24973;47.178;15.316;2023-05-07T03:47:20;11.00;99.90
21799;DHT22;24973;47.178;15.316;2023-05-07T03:50:09;11.00;99.90
21799;DHT22;24973;47.178;15.316;2023-05-07T03:52:58;10.90;99.90
21799;DHT22;24973;47.178;15.316;2023-05-07T03:55:48;10.90;99.90
21799;DHT22;24973;47.178;15.316;2023-05-07T03:58:37;10.90;99.90
21799;DHT22;24973;47.178;15.316;2023-05-07T04:01:26;10.90;99.90
21799;DHT22;24973;47.178;15.316;2023-05-07T04:04:15;11.00;99.90
21799;DHT22;24973;47.178;15.316;2023-05-07T04:07:04;11.00;99.90
21799;DHT22;24973;47.178;15.316;2023-05-07T04:09:52;11.00;99.90
21799;DHT22;24973;47.178;15.316;2023-05-07T04:12:42;10.90;99.90
21799;DHT22;24973;47.178;15.316;2023-05-07T04:15:31;10.90;99.90
21799;DHT22;24973;47.178;15.316;2023-05-07T04:18:20;10.90;99.90
21799;DHT22;24973;47.178;15.316;2023-05-07T04:21:14;11.00;99.90
21799;DHT22;24973;47.178;15.316;2023-05-07T04:24:04;10.90;99.90
21799;DHT22;24973;47.178;15.316;2023-05-07T04:26:53;10.90;99.90
21799;DHT22;24973;47.178;15.316;2023-05-07T04:29:43;10.90;99.90
21799;DHT22;24973;47.178;15.316;2023-05-07T04:32:34;10.90;99.90
21799;DHT22;24973;47.178;15.316;2023-05-07T04:35:23;10.90;99.90
21799;DHT22;24973;47.178;15.316;2023-05-07T04:38:12;11.00;99.90
21799;DHT22;24973;47.178;15.316;2023-05-07T04:41:03;11.00;99.90
21799;DHT22;24973;47.178;15.316;2023-05-07T04:43:53;11.10;99.90
21799;DHT22;24973;47.178;15.316;2023-05-07T04:46:43;11.20;99.90
21799;DHT22;24973;47.178;15.316;2023-05-07T04:49:31;11.20;99.90
21799;DHT22;24973;47.178;15.316;2023-05-07T04:52:20;11.30;99.90
21799;DHT22;24973;47.178;15.316;2023-05-07T04:55:09;11.40;99.90
21799;DHT22;24973;47.178;15.316;2023-05-07T04:57:58;11.40;99.90
21799;DHT22;24973;47.178;15.316;2023-05-07T05:00:48;11.40;99.90
21799;DHT22;24973;47.178;15.316;2023-05-07T05:03:38;11.30;99.90
21799;DHT22;24973;47.178;15.316;2023-05-07T05:06:28;11.40;99.90
21799;DHT22;24973;47.178;15.316;2023-05-07T05:09:17;11.40;99.90
21799;DHT22;24973;47.178;15.316;2023-05-07T05:12:06;11.50;99.90
21799;DHT22;24973;47.178;15.316;2023-05-07T05:14:56;11.50;99.90
21799;DHT22;24973;47.178;15.316;2023-05-07T05:17:44;11.50;99.90
21799;DHT22;24973;47.178;15.316;2023-05-07T05:20:35;11.60;99.90
21799;DHT22;24973;47.178;15.316;2023-05-07T05:23:23;11.60;99.90
21799;DHT22;24973;47.178;15.316;2023-05-07T05:26:12;11.80;99.90
21799;DHT22;24973;47.178;15.316;2023-05-07T05:29:01;11.90;99.90
21799;DHT22;24973;47.178;15.316;2023-05-07T05:31:49;12.00;99.90
21799;DHT22;24973;47.178;15.316;2023-05-07T05:34:38;12.00;99.90
21799;DHT22;24973;47.178;15.316;2023-05-07T05:37:28;12.20;99.90
21799;DHT22;24973;47.178;15.316;2023-05-07T05:40:18;12.30;99.90
21799;DHT22;24973;47.178;15.316;2023-05-07T05:43:07;12.40;99.90
21799;DHT22;24973;47.178;15.316;2023-05-07T05:45:56;12.50;99.90
21799;DHT22;24973;47.178;15.316;2023-05-07T05:48:46;12.40;99.90
21799;DHT22;24973;47.178;15.316;2023-05-07T05:51:34;12.40;99.90
21799;DHT22;24973;47.178;15.316;2023-05-07T05:54:24;12.40;99.90
21799;DHT22;24973;47.178;15.316;2023-05-07T05:57:13;12.60;99.90
21799;DHT22;24973;47.178;15.316;2023-05-07T06:00:02;12.70;99.90
21799;DHT22;24973;47.178;15.316;2023-05-07T06:02:52;12.70;99.90
21799;DHT22;24973;47.178;15.316;2023-05-07T06:05:40;12.80;99.90
21799;DHT22;24973;47.178;15.316;2023-05-07T06:08:29;12.90;99.90
21799;DHT22;24973;47.178;15.316;2023-05-07T06:11:20;13.00;99.90
21799;DHT22;24973;47.178;15.316;2023-05-07T06:14:08;13.20;99.90
21799;DHT22;24973;47.178;15.316;2023-05-07T06:16:57;13.40;99.90
21799;DHT22;24973;47.178;15.316;2023-05-07T06:19:46;13.70;99.90
21799;DHT22;24973;47.178;15.316;2023-05-07T06:22:34;13.70;99.90
21799;DHT22;24973;47.178;15.316;2023-05-07T06:25:23;13.90;99.90
21799;DHT22;24973;47.178;15.316;2023-05-07T06:28:13;14.00;99.90
21799;DHT22;24973;47.178;15.316;2023-05-07T06:31:12;14.20;99.90
21799;DHT22;24973;47.178;15.316;2023-05-07T06:34:01;14.30;99.90
21799;DHT22;24973;47.178;15.316;2023-05-07T06:36:50;14.40;99.90
21799;DHT22;24973;47.178;15.316;2023-05-07T06:39:38;14.50;99.90
21799;DHT22;24973;47.178;15.316;2023-05-07T06:42:27;14.60;99.90
21799;DHT22;24973;47.178;15.316;2023-05-07T06:45:18;14.70;99.90
21799;DHT22;24973;47.178;15.316;2023-05-07T06:48:07;14.90;99.90
21799;DHT22;24973;47.178;15.316;2023-05-07T06:50:56;15.10;99.90
21799;DHT22;24973;47.178;15.316;2023-05-07T06:53:44;15.20;99.90
21799;DHT22;24973;47.178;15.316;2023-05-07T06:56:33;15.30;99.90
21799;DHT22;24973;47.178;15.316;2023-05-07T06:59:23;15.10;99.90
21799;DHT22;24973;47.178;15.316;2023-05-07T07:02:13;15.50;99.90
21799;DHT22;24973;47.178;15.316;2023-05-07T07:05:04;15.60;99.90
21799;DHT22;24973;47.178;15.316;2023-05-07T07:07:53;15.80;99.90
21799;DHT22;24973;47.178;15.316;2023-05-07T07:10:42;15.90;99.90
21799;DHT22;24973;47.178;15.316;2023-05-07T07:13:31;16.20;99.90
21799;DHT22;24973;47.178;15.316;2023-05-07T07:16:20;16.40;99.90
21799;DHT22;24973;47.178;15.316;2023-05-07T07:19:10;16.60;99.90
21799;DHT22;24973;47.178;15.316;2023-05-07T07:21:58;16.80;99.90
21799;DHT22;24973;47.178;15.316;2023-05-07T07:24:47;16.90;99.90
21799;DHT22;24973;47.178;15.316;2023-05-07T07:27:36;17.10;99.90
21799;DHT22;24973;47.178;15.316;2023-05-07T07:30:25;17.30;99.90
21799;DHT22;24973;47.178;15.316;2023-05-07T07:33:14;17.40;99.90
21799;DHT22;24973;47.178;15.316;2023-05-07T07:36:05;17.60;99.90
21799;DHT22;24973;47.178;15.316;2023-05-07T07:38:54;17.80;99.90
21799;DHT22;24973;47.178;15.316;2023-05-07T07:41:43;17.90;99.90
21799;DHT22;24973;47.178;15.316;2023-05-07T07:44:32;18.10;99.90
21799;DHT22;24973;47.178;15.316;2023-05-07T07:47:20;18.20;99.90
21799;DHT22;24973;47.178;15.316;2023-05-07T07:50:09;18.40;99.90
21799;DHT22;24973;47.178;15.316;2023-05-07T07:53:02;18.50;99.90
21799;DHT22;24973;47.178;15.316;2023-05-07T07:55:51;18.60;99.90
21799;DHT22;24973;47.178;15.316;2023-05-07T07:58:41;18.70;99.90
21799;DHT22;24973;47.178;15.316;2023-05-07T08:01:30;18.90;99.90
21799;DHT22;24973;47.178;15.316;2023-05-07T08:04:19;18.90;99.90
21799;DHT22;24973;47.178;15.316;2023-05-07T08:07:07;18.90;99.90
21799;DHT22;24973;47.178;15.316;2023-05-07T08:09:57;19.00;99.90
21799;DHT22;24973;47.178;15.316;2023-05-07T08:12:46;19.10;99.90
21799;DHT22;24973;47.178;15.316;2023-05-07T08:15:35;19.20;99.90
21799;DHT22;24973;47.178;15.316;2023-05-07T08:18:24;19.30;99.90
21799;DHT22;24973;47.178;15.316;2023-05-07T08:21:15;19.40;99.90
21799;DHT22;24973;47.178;15.316;2023-05-07T08:24:04;19.50;99.90
21799;DHT22;24973;47.178;15.316;2023-05-07T08:26:54;19.70;99.90
21799;DHT22;24973;47.178;15.316;2023-05-07T08:29:43;19.80;99.90
21799;DHT22;24973;47.178;15.316;2023-05-07T08:32:34;20.00;99.90
21799;DHT22;24973;47.178;15.316;2023-05-07T08:35:23;20.20;99.90
21799;DHT22;24973;47.178;15.316;2023-05-07T08:38:12;20.40;99.90
21799;DHT22;24973;47.178;15.316;2023-05-07T08:41:01;20.70;99.90
21799;DHT22;24973;47.178;15.316;2023-05-07T08:43:51;21.50;99.90
21799;DHT22;24973;47.178;15.316;2023-05-07T08:46:41;21.00;99.90
21799;DHT22;24973;47.178;15.316;2023-05-07T08:49:30;21.20;99.90
21799;DHT22;24973;47.178;15.316;2023-05-07T08:52:19;21.30;99.90
21799;DHT22;24973;47.178;15.316;2023-05-07T08:55:09;21.50;99.90
21799;DHT22;24973;47.178;15.316;2023-05-07T08:57:58;21.60;99.90
21799;DHT22;24973;47.178;15.316;2023-05-07T09:00:48;21.70;99.90
21799;DHT22;24973;47.178;15.316;2023-05-07T09:03:38;21.60;99.90
21799;DHT22;24973;47.178;15.316;2023-05-07T09:06:27;21.30;99.90
21799;DHT22;24973;47.178;15.316;2023-05-07T09:09:17;21.30;99.90
21799;DHT22;24973;47.178;15.316;2023-05-07T09:12:06;21.40;99.90
21799;DHT22;24973;47.178;15.316;2023-05-07T09:14:55;21.60;99.90
21799;DHT22;24973;47.178;15.316;2023-05-07T09:17:45;21.70;99.90
21799;DHT22;24973;47.178;15.316;2023-05-07T09:20:36;21.90;99.90
21799;DHT22;24973;47.178;15.316;2023-05-07T09:23:25;22.00;99.90
21799;DHT22;24973;47.178;15.316;2023-05-07T09:26:14;22.30;99.90
21799;DHT22;24973;47.178;15.316;2023-05-07T09:29:03;22.60;99.90
21799;DHT22;24973;47.178;15.316;2023-05-07T09:31:51;22.70;99.90
21799;DHT22;24973;47.178;15.316;2023-05-07T09:34:41;22.40;99.90
21799;DHT22;24973;47.178;15.316;2023-05-07T09:37:31;22.00;99.90
21799;DHT22;24973;47.178;15.316;2023-05-07T09:40:21;21.90;99.90
21799;DHT22;24973;47.178;15.316;2023-05-07T09:43:10;22.00;99.90
21799;DHT22;24973;47.178;15.316;2023-05-07T09:46:06;22.10;99.90
21799;DHT22;24973;47.178;15.316;2023-05-07T09:48:57;22.20;99.90
21799;DHT22;24973;47.178;15.316;2023-05-07T09:51:51;22.20;99.90
21799;DHT22;24973;47.178;15.316;2023-05-07T09:54:40;22.30;99.90
21799;DHT22;24973;47.178;15.316;2023-05-07T09:57:32;22.40;99.90
21799;DHT22;24973;47.178;15.316;2023-05-07T10:00:22;22.20;99.90
21799;DHT22;24973;47.178;15.316;2023-05-07T10:03:11;22.30;99.90
21799;DHT22;24973;47.178;15.316;2023-05-07T10:06:01;22.60;99.90
21799;DHT22;24973;47.178;15.316;2023-05-07T10:08:52;22.60;99.90
21799;DHT22;24973;47.178;15.316;2023-05-07T10:11:41;22.60;99.90
21799;DHT22;24973;47.178;15.316;2023-05-07T10:14:30;22.70;99.90
21799;DHT22;24973;47.178;15.316;2023-05-07T10:17:19;22.80;99.90
21799;DHT22;24973;47.178;15.316;2023-05-07T10:20:09;22.80;99.90
21799;DHT22;24973;47.178;15.316;2023-05-07T10:22:58;23.00;99.90
21799;DHT22;24973;47.178;15.316;2023-05-07T10:25:48;22.80;99.90
21799;DHT22;24973;47.178;15.316;2023-05-07T10:28:41;22.60;99.90
21799;DHT22;24973;47.178;15.316;2023-05-07T10:31:49;22.30;99.90
21799;DHT22;24973;47.178;15.316;2023-05-07T10:34:45;22.40;99.90
21799;DHT22;24973;47.178;15.316;2023-05-07T10:37:36;22.60;99.90
21799;DHT22;24973;47.178;15.316;2023-05-07T10:40:24;22.90;98.90
21799;DHT22;24973;47.178;15.316;2023-05-07T10:43:15;23.10;99.60
21799;DHT22;24973;47.178;15.316;2023-05-07T10:46:10;23.00;99.90
21799;DHT22;24973;47.178;15.316;2023-05-07T10:49:09;23.80;99.20
21799;DHT22;24973;47.178;15.316;2023-05-07T10:52:13;23.30;98.10
21799;DHT22;24973;47.178;15.316;2023-05-07T10:55:21;23.50;98.20
21799;DHT22;24973;47.178;15.316;2023-05-07T10:58:27;23.80;98.40
21799;DHT22;24973;47.178;15.316;2023-05-07T11:01:49;24.10;97.40
21799;DHT22;24973;47.178;15.316;2023-05-07T11:04:39;24.50;97.10
21799;DHT22;24973;47.178;15.316;2023-05-07T11:07:29;24.70;95.10
21799;DHT22;24973;47.178;15.316;2023-05-07T11:10:19;25.00;94.20
21799;DHT22;24973;47.178;15.316;2023-05-07T11:13:09;25.30;94.00
21799;DHT22;24973;47.178;15.316;2023-05-07T11:15:59;25.20;93.60
21799;DHT22;24973;47.178;15.316;2023-05-07T11:18:49;25.20;93.40
21799;DHT22;24973;47.178;15.316;2023-05-07T11:21:40;24.90;92.20
21799;DHT22;24973;47.178;15.316;2023-05-07T11:24:39;24.70;92.70
21799;DHT22;24973;47.178;15.316;2023-05-07T11:27:27;24.60;93.40
21799;DHT22;24973;47.178;15.316;2023-05-07T11:30:17;24.50;93.50
21799;DHT22;24973;47.178;15.316;2023-05-07T11:33:08;24.40;93.90
21799;DHT22;24973;47.178;15.316;2023-05-07T11:35:57;24.50;93.70
21799;DHT22;24973;47.178;15.316;2023-05-07T11:38:47;24.30;93.80
21799;DHT22;24973;47.178;15.316;2023-05-07T11:41:36;24.00;93.00
21799;DHT22;24973;47.178;15.316;2023-05-07T11:44:25;23.70;93.50
21799;DHT22;24973;47.178;15.316;2023-05-07T11:47:30;23.40;93.20
21799;DHT22;24973;47.178;15.316;2023-05-07T11:50:20;23.20;93.60
21799;DHT22;24973;47.178;15.316;2023-05-07T11:53:09;23.10;93.80
21799;DHT22;24973;47.178;15.316;2023-05-07T11:56:00;23.10;94.30
21799;DHT22;24973;47.178;15.316;2023-05-07T11:58:49;23.10;94.80
21799;DHT22;24973;47.178;15.316;2023-05-07T12:01:39;22.90;93.90
21799;DHT22;24973;47.178;15.316;2023-05-07T12:04:30;22.90;95.60
21799;DHT22;24973;47.178;15.316;2023-05-07T12:07:20;22.80;95.00
21799;DHT22;24973;47.178;15.316;2023-05-07T12:10:11;22.50;96.50
21799;DHT22;24973;47.178;15.316;2023-05-07T12:13:01;22.30;97.10
21799;DHT22;24973;47.178;15.316;2023-05-07T12:15:50;22.20;98.20
21799;DHT22;24973;47.178;15.316;2023-05-07T12:18:40;22.00;98.30
21799;DHT22;24973;47.178;15.316;2023-05-07T12:21:29;21.80;98.50
21799;DHT22;24973;47.178;15.316;2023-05-07T12:24:19;21.60;99.90
21799;DHT22;24973;47.178;15.316;2023-05-07T12:27:09;21.40;99.90
21799;DHT22;24973;47.178;15.316;2023-05-07T12:29:58;21.00;99.90
21799;DHT22;24973;47.178;15.316;2023-05-07T12:32:47;20.50;99.90
21799;DHT22;24973;47.178;15.316;2023-05-07T12:35:42;19.90;99.90
21799;DHT22;24973;47.178;15.316;2023-05-07T12:38:35;19.20;99.90
21799;DHT22;24973;47.178;15.316;2023-05-07T12:41:26;18.50;99.90
21799;DHT22;24973;47.178;15.316;2023-05-07T12:44:16;18.00;99.90
21799;DHT22;24973;47.178;15.316;2023-05-07T12:47:05;17.70;99.90
21799;DHT22;24973;47.178;15.316;2023-05-07T12:49:54;17.50;99.90
21799;DHT22;24973;47.178;15.316;2023-05-07T12:52:43;17.30;99.90
21799;DHT22;24973;47.178;15.316;2023-05-07T12:55:34;17.20;99.90
21799;DHT22;24973;47.178;15.316;2023-05-07T12:58:33;17.10;99.90
21799;DHT22;24973;47.178;15.316;2023-05-07T13:01:29;17.00;99.90
21799;DHT22;24973;47.178;15.316;2023-05-07T13:04:20;16.90;99.90
21799;DHT22;24973;47.178;15.316;2023-05-07T13:07:17;16.90;99.90
21799;DHT22;24973;47.178;15.316;2023-05-07T13:10:07;16.80;99.90
21799;DHT22;24973;47.178;15.316;2023-05-07T13:12:57;16.70;99.90
21799;DHT22;24973;47.178;15.316;2023-05-07T13:15:47;16.60;99.90
21799;DHT22;24973;47.178;15.316;2023-05-07T13:18:37;16.50;99.90
21799;DHT22;24973;47.178;15.316;2023-05-07T13:21:26;16.50;99.90
21799;DHT22;24973;47.178;15.316;2023-05-07T13:24:15;16.60;99.90
21799;DHT22;24973;47.178;15.316;2023-05-07T13:27:04;16.50;99.90
21799;DHT22;24973;47.178;15.316;2023-05-07T13:29:53;16.50;99.90
21799;DHT22;24973;47.178;15.316;2023-05-07T13:32:43;16.60;99.90
21799;DHT22;24973;47.178;15.316;2023-05-07T13:35:33;16.60;99.90
21799;DHT22;24973;47.178;15.316;2023-05-07T13:38:22;16.70;99.90
21799;DHT22;24973;47.178;15.316;2023-05-07T13:41:11;16.80;99.90
21799;DHT22;24973;47.178;15.316;2023-05-07T13:43:59;16.90;99.90
21799;DHT22;24973;47.178;15.316;2023-05-07T13:46:48;17.10;99.90
21799;DHT22;24973;47.178;15.316;2023-05-07T13:49:38;17.20;99.90
21799;DHT22;24973;47.178;15.316;2023-05-07T13:52:27;17.30;99.90
21799;DHT22;24973;47.178;15.316;2023-05-07T13:55:17;17.20;99.90
21799;DHT22;24973;47.178;15.316;2023-05-07T13:58:05;17.20;99.90
21799;DHT22;24973;47.178;15.316;2023-05-07T14:00:54;17.20;99.90
21799;DHT22;24973;47.178;15.316;2023-05-07T14:03:43;17.30;99.90
21799;DHT22;24973;47.178;15.316;2023-05-07T14:06:34;17.40;99.90
21799;DHT22;24973;47.178;15.316;2023-05-07T14:09:22;17.30;99.90
21799;DHT22;24973;47.178;15.316;2023-05-07T14:12:11;17.30;99.90
21799;DHT22;24973;47.178;15.316;2023-05-07T14:15:00;17.10;99.90
21799;DHT22;24973;47.178;15.316;2023-05-07T14:17:48;17.10;99.90
21799;DHT22;24973;47.178;15.316;2023-05-07T14:20:37;16.90;99.90
21799;DHT22;24973;47.178;15.316;2023-05-07T14:23:27;16.80;99.90
21799;DHT22;24973;47.178;15.316;2023-05-07T14:26:16;16.70;99.90
21799;DHT22;24973;47.178;15.316;2023-05-07T14:29:06;16.80;99.90
21799;DHT22;24973;47.178;15.316;2023-05-07T14:31:55;16.90;99.90
21799;DHT22;24973;47.178;15.316;2023-05-07T14:34:43;17.10;99.90
21799;DHT22;24973;47.178;15.316;2023-05-07T14:37:32;17.20;99.90
21799;DHT22;24973;47.178;15.316;2023-05-07T14:40:22;17.30;99.90
21799;DHT22;24973;47.178;15.316;2023-05-07T14:43:11;17.30;99.90
21799;DHT22;24973;47.178;15.316;2023-05-07T14:46:00;17.30;99.90
21799;DHT22;24973;47.178;15.316;2023-05-07T14:48:49;17.30;99.90
21799;DHT22;24973;47.178;15.316;2023-05-07T14:51:38;17.20;99.90
21799;DHT22;24973;47.178;15.316;2023-05-07T14:54:27;17.10;99.90
21799;DHT22;24973;47.178;15.316;2023-05-07T14:57:17;17.10;99.90
21799;DHT22;24973;47.178;15.316;2023-05-07T15:00:07;17.00;99.90
21799;DHT22;24973;47.178;15.316;2023-05-07T15:03:04;17.00;99.90
21799;DHT22;24973;47.178;15.316;2023-05-07T15:05:54;17.00;99.90
21799;DHT22;24973;47.178;15.316;2023-05-07T15:08:43;17.10;99.90
21799;DHT22;24973;47.178;15.316;2023-05-07T15:11:32;17.20;99.90
21799;DHT22;24973;47.178;15.316;2023-05-07T15:14:22;17.20;99.90
21799;DHT22;24973;47.178;15.316;2023-05-07T15:17:11;17.20;99.90
21799;DHT22;24973;47.178;15.316;2023-05-07T15:20:02;17.20;99.90
21799;DHT22;24973;47.178;15.316;2023-05-07T15:22:52;17.10;99.90
21799;DHT22;24973;47.178;15.316;2023-05-07T15:25:40;16.60;99.90
21799;DHT22;24973;47.178;15.316;2023-05-07T15:28:29;17.00;99.90
21799;DHT22;24973;47.178;15.316;2023-05-07T15:31:19;17.10;99.90
21799;DHT22;24973;47.178;15.316;2023-05-07T15:34:08;17.10;99.90
21799;DHT22;24973;47.178;15.316;2023-05-07T15:36:57;17.20;99.90
21799;DHT22;24973;47.178;15.316;2023-05-07T15:39:46;17.30;99.90
21799;DHT22;24973;47.178;15.316;2023-05-07T15:42:35;17.40;99.90
21799;DHT22;24973;47.178;15.316;2023-05-07T15:45:24;17.40;99.90
21799;DHT22;24973;47.178;15.316;2023-05-07T15:48:14;17.30;99.90
21799;DHT22;24973;47.178;15.316;2023-05-07T15:51:03;17.30;99.90
21799;DHT22;24973;47.178;15.316;2023-05-07T15:53:53;17.30;99.90
21799;DHT22;24973;47.178;15.316;2023-05-07T15:56:42;17.20;99.90
21799;DHT22;24973;47.178;15.316;2023-05-07T15:59:31;17.40;99.90
21799;DHT22;24973;47.178;15.316;2023-05-07T16:02:20;17.10;99.90
21799;DHT22;24973;47.178;15.316;2023-05-07T16:05:10;17.10;99.90
21799;DHT22;24973;47.178;15.316;2023-05-07T16:07:59;17.10;99.90
21799;DHT22;24973;47.178;15.316;2023-05-07T16:10:48;17.10;99.90
21799;DHT22;24973;47.178;15.316;2023-05-07T16:13:37;17.10;99.90
21799;DHT22;24973;47.178;15.316;2023-05-07T16:16:26;17.20;99.90
21799;DHT22;24973;47.178;15.316;2023-05-07T16:19:16;17.20;99.90
21799;DHT22;24973;47.178;15.316;2023-05-07T16:22:06;17.20;99.90
21799;DHT22;24973;47.178;15.316;2023-05-07T16:24:55;17.20;99.90
21799;DHT22;24973;47.178;15.316;2023-05-07T16:27:44;17.20;99.90
21799;DHT22;24973;47.178;15.316;2023-05-07T16:30:32;17.10;99.90
21799;DHT22;24973;47.178;15.316;2023-05-07T16:33:21;17.00;99.90
21799;DHT22;24973;47.178;15.316;2023-05-07T16:36:10;16.90;99.90
21799;DHT22;24973;47.178;15.316;2023-05-07T16:39:00;17.30;99.90
21799;DHT22;24973;47.178;15.316;2023-05-07T16:41:49;16.70;99.90
21799;DHT22;24973;47.178;15.316;2023-05-07T16:44:38;16.70;99.90
21799;DHT22;24973;47.178;15.316;2023-05-07T16:47:27;16.80;99.90
21799;DHT22;24973;47.178;15.316;2023-05-07T16:50:15;16.80;99.90
21799;DHT22;24973;47.178;15.316;2023-05-07T16:53:05;16.80;99.90
21799;DHT22;24973;47.178;15.316;2023-05-07T16:55:55;16.70;99.90
21799;DHT22;24973;47.178;15.316;2023-05-07T16:58:44;16.70;99.90
21799;DHT22;24973;47.178;15.316;2023-05-07T17:01:33;16.80;99.90
21799;DHT22;24973;47.178;15.316;2023-05-07T17:04:22;16.70;99.90
21799;DHT22;24973;47.178;15.316;2023-05-07T17:07:11;16.70;99.90
21799;DHT22;24973;47.178;15.316;2023-05-07T17:10:01;16.60;99.90
21799;DHT22;24973;47.178;15.316;2023-05-07T17:12:51;16.60;99.90
21799;DHT22;24973;47.178;15.316;2023-05-07T17:15:40;16.60;99.90
21799;DHT22;24973;47.178;15.316;2023-05-07T17:18:31;16.60;99.90
21799;DHT22;24973;47.178;15.316;2023-05-07T17:21:20;16.60;99.90
21799;DHT22;24973;47.178;15.316;2023-05-07T17:24:08;16.60;99.90
21799;DHT22;24973;47.178;15.316;2023-05-07T17:26:57;16.60;99.90
21799;DHT22;24973;47.178;15.316;2023-05-07T17:29:48;16.60;99.90
21799;DHT22;24973;47.178;15.316;2023-05-07T17:32:36;16.50;99.90
21799;DHT22;24973;47.178;15.316;2023-05-07T17:35:25;16.50;99.90